sensor_id;sensor_type;location;lat;lon;timestamp;temperature;humidity
41437;DHT22;27178;49.460;10.850;2022-08-30T00:02:07;23.20;57.10
41437;DHT22;27178;49.460;10.850;2022-08-30T00:04:36;23.10;57.00
41437;DHT22;27178;49.460;10.850;2022-08-30T00:07:06;23.10;57.10
41437;DHT22;27178;49.460;10.850;2022-08-30T00:09:35;23.10;57.30
41437;DHT22;27178;49.460;10.850;2022-08-30T00:12:03;23.10;57.20
41437;DHT22;27178;49.460;10.850;2022-08-30T00:14:32;23.10;57.40
41437;DHT22;27178;49.460;10.850;2022-08-30T00:17:00;23.10;57.40
41437;DHT22;27178;49.460;10.850;2022-08-30T00:19:29;23.10;57.90
41437;DHT22;27178;49.460;10.850;2022-08-30T00:21:57;23.00;57.30
41437;DHT22;27178;49.460;10.850;2022-08-30T00:24:27;23.00;57.40
41437;DHT22;27178;49.460;10.850;2022-08-30T00:26:56;23.00;57.60
41437;DHT22;27178;49.460;10.850;2022-08-30T00:29:24;23.00;57.60
41437;DHT22;27178;49.460;10.850;2022-08-30T00:31:52;22.90;57.60
41437;DHT22;27178;49.460;10.850;2022-08-30T00:34:21;22.90;57.80
41437;DHT22;27178;49.460;10.850;2022-08-30T00:36:49;22.90;57.90
41437;DHT22;27178;49.460;10.850;2022-08-30T00:39:18;22.90;58.10
41437;DHT22;27178;49.460;10.850;2022-08-30T00:41:48;22.90;58.10
41437;DHT22;27178;49.460;10.850;2022-08-30T00:44:16;22.80;58.10
41437;DHT22;27178;49.460;10.850;2022-08-30T00:46:45;22.80;57.90
41437;DHT22;27178;49.460;10.850;2022-08-30T00:49:14;22.80;58.00
41437;DHT22;27178;49.460;10.850;2022-08-30T00:51:43;22.80;58.10
41437;DHT22;27178;49.460;10.850;2022-08-30T00:54:11;22.70;58.30
41437;DHT22;27178;49.460;10.850;2022-08-30T00:56:40;22.70;58.30
41437;DHT22;27178;49.460;10.850;2022-08-30T00:59:10;22.70;58.30
41437;DHT22;27178;49.460;10.850;2022-08-30T01:01:39;22.70;58.20
41437;DHT22;27178;49.460;10.850;2022-08-30T01:04:10;22.70;58.20
41437;DHT22;27178;49.460;10.850;2022-08-30T01:06:39;22.70;58.20
41437;DHT22;27178;49.460;10.850;2022-08-30T01:09:08;22.70;58.30
41437;DHT22;27178;49.460;10.850;2022-08-30T01:11:37;22.70;58.20
41437;DHT22;27178;49.460;10.850;2022-08-30T01:14:07;22.60;58.10
41437;DHT22;27178;49.460;10.850;2022-08-30T01:16:40;22.60;58.30
41437;DHT22;27178;49.460;10.850;2022-08-30T01:19:26;22.60;58.40
41437;DHT22;27178;49.460;10.850;2022-08-30T01:22:02;22.60;58.60
41437;DHT22;27178;49.460;10.850;2022-08-30T01:24:32;22.60;58.40
41437;DHT22;27178;49.460;10.850;2022-08-30T01:27:02;22.60;58.40
41437;DHT22;27178;49.460;10.850;2022-08-30T01:29:34;22.50;58.30
41437;DHT22;27178;49.460;10.850;2022-08-30T01:32:05;22.50;58.20
41437;DHT22;27178;49.460;10.850;2022-08-30T01:34:33;22.50;58.30
41437;DHT22;27178;49.460;10.850;2022-08-30T01:37:02;22.50;58.20
41437;DHT22;27178;49.460;10.850;2022-08-30T01:39:32;22.40;58.20
41437;DHT22;27178;49.460;10.850;2022-08-30T01:42:02;22.40;58.40
41437;DHT22;27178;49.460;10.850;2022-08-30T01:44:30;22.40;58.40
41437;DHT22;27178;49.460;10.850;2022-08-30T01:46:59;22.30;58.40
41437;DHT22;27178;49.460;10.850;2022-08-30T01:49:27;22.30;58.40
41437;DHT22;27178;49.460;10.850;2022-08-30T01:51:56;22.30;58.50
41437;DHT22;27178;49.460;10.850;2022-08-30T01:54:27;22.20;58.60
41437;DHT22;27178;49.460;10.850;2022-08-30T01:57:04;22.20;58.40
41437;DHT22;27178;49.460;10.850;2022-08-30T01:59:32;22.10;58.30
41437;DHT22;27178;49.460;10.850;2022-08-30T02:02:01;22.10;58.50
41437;DHT22;27178;49.460;10.850;2022-08-30T02:04:29;22.10;58.70
41437;DHT22;27178;49.460;10.850;2022-08-30T02:06:58;22.00;58.80
41437;DHT22;27178;49.460;10.850;2022-08-30T02:09:26;22.00;59.00
41437;DHT22;27178;49.460;10.850;2022-08-30T02:11:54;22.00;59.00
41437;DHT22;27178;49.460;10.850;2022-08-30T02:14:25;22.00;58.90
41437;DHT22;27178;49.460;10.850;2022-08-30T02:16:53;21.90;58.90
41437;DHT22;27178;49.460;10.850;2022-08-30T02:19:22;21.90;59.00
41437;DHT22;27178;49.460;10.850;2022-08-30T02:21:50;21.90;59.20
41437;DHT22;27178;49.460;10.850;2022-08-30T02:24:19;21.80;59.20
41437;DHT22;27178;49.460;10.850;2022-08-30T02:26:48;21.80;59.30
41437;DHT22;27178;49.460;10.850;2022-08-30T02:29:19;21.80;59.40
41437;DHT22;27178;49.460;10.850;2022-08-30T02:31:49;21.80;59.50
41437;DHT22;27178;49.460;10.850;2022-08-30T02:34:18;21.80;59.70
41437;DHT22;27178;49.460;10.850;2022-08-30T02:36:47;21.80;59.70
41437;DHT22;27178;49.460;10.850;2022-08-30T02:39:15;21.80;59.60
41437;DHT22;27178;49.460;10.850;2022-08-30T02:41:44;21.80;59.60
41437;DHT22;27178;49.460;10.850;2022-08-30T02:44:14;21.80;59.60
41437;DHT22;27178;49.460;10.850;2022-08-30T02:46:42;21.80;59.60
41437;DHT22;27178;49.460;10.850;2022-08-30T02:49:13;21.80;59.60
41437;DHT22;27178;49.460;10.850;2022-08-30T02:52:02;21.80;59.50
41437;DHT22;27178;49.460;10.850;2022-08-30T02:54:31;21.80;59.70
41437;DHT22;27178;49.460;10.850;2022-08-30T02:57:00;21.80;59.50
41437;DHT22;27178;49.460;10.850;2022-08-30T02:59:31;21.80;59.50
41437;DHT22;27178;49.460;10.850;2022-08-30T03:01:59;21.80;59.50
41437;DHT22;27178;49.460;10.850;2022-08-30T03:04:29;21.70;59.30
41437;DHT22;27178;49.460;10.850;2022-08-30T03:06:58;21.70;59.50
41437;DHT22;27178;49.460;10.850;2022-08-30T03:09:26;21.70;59.50
41437;DHT22;27178;49.460;10.850;2022-08-30T03:11:54;21.70;59.50
41437;DHT22;27178;49.460;10.850;2022-08-30T03:14:22;21.60;59.40
41437;DHT22;27178;49.460;10.850;2022-08-30T03:16:51;21.60;59.50
41437;DHT22;27178;49.460;10.850;2022-08-30T03:19:20;21.60;59.60
41437;DHT22;27178;49.460;10.850;2022-08-30T03:21:50;21.60;59.70
41437;DHT22;27178;49.460;10.850;2022-08-30T03:24:19;21.50;59.70
41437;DHT22;27178;49.460;10.850;2022-08-30T03:26:47;21.50;59.50
41437;DHT22;27178;49.460;10.850;2022-08-30T03:29:17;21.50;59.40
41437;DHT22;27178;49.460;10.850;2022-08-30T03:31:45;21.40;59.40
41437;DHT22;27178;49.460;10.850;2022-08-30T03:34:19;21.40;59.60
41437;DHT22;27178;49.460;10.850;2022-08-30T03:36:51;21.30;59.80
41437;DHT22;27178;49.460;10.850;2022-08-30T03:39:21;21.30;59.90
41437;DHT22;27178;49.460;10.850;2022-08-30T03:41:49;21.30;60.00
41437;DHT22;27178;49.460;10.850;2022-08-30T03:44:18;21.30;60.20
41437;DHT22;27178;49.460;10.850;2022-08-30T03:46:47;21.30;60.10
41437;DHT22;27178;49.460;10.850;2022-08-30T03:49:16;21.30;59.90
41437;DHT22;27178;49.460;10.850;2022-08-30T03:51:44;21.20;59.80
41437;DHT22;27178;49.460;10.850;2022-08-30T03:54:15;21.20;59.90
41437;DHT22;27178;49.460;10.850;2022-08-30T03:56:43;21.20;59.90
41437;DHT22;27178;49.460;10.850;2022-08-30T03:59:12;21.10;59.90
41437;DHT22;27178;49.460;10.850;2022-08-30T04:01:40;21.10;60.00
41437;DHT22;27178;49.460;10.850;2022-08-30T04:04:12;21.10;61.00
41437;DHT22;27178;49.460;10.850;2022-08-30T04:06:46;21.10;60.20
41437;DHT22;27178;49.460;10.850;2022-08-30T04:09:17;21.10;60.20
41437;DHT22;27178;49.460;10.850;2022-08-30T04:11:46;21.10;60.20
41437;DHT22;27178;49.460;10.850;2022-08-30T04:14:14;21.00;60.20
41437;DHT22;27178;49.460;10.850;2022-08-30T04:16:42;21.00;60.30
41437;DHT22;27178;49.460;10.850;2022-08-30T04:19:11;21.00;60.30
41437;DHT22;27178;49.460;10.850;2022-08-30T04:21:40;21.00;60.20
41437;DHT22;27178;49.460;10.850;2022-08-30T04:24:09;21.00;60.40
41437;DHT22;27178;49.460;10.850;2022-08-30T04:26:39;20.90;60.50
41437;DHT22;27178;49.460;10.850;2022-08-30T04:29:08;20.90;60.70
41437;DHT22;27178;49.460;10.850;2022-08-30T04:31:37;20.90;60.50
41437;DHT22;27178;49.460;10.850;2022-08-30T04:34:07;20.90;60.70
41437;DHT22;27178;49.460;10.850;2022-08-30T04:36:36;20.90;60.80
41437;DHT22;27178;49.460;10.850;2022-08-30T04:39:04;20.90;60.90
41437;DHT22;27178;49.460;10.850;2022-08-30T04:41:35;20.90;60.80
41437;DHT22;27178;49.460;10.850;2022-08-30T04:44:07;20.80;60.50
41437;DHT22;27178;49.460;10.850;2022-08-30T04:46:44;20.80;60.70
41437;DHT22;27178;49.460;10.850;2022-08-30T04:49:13;20.80;60.70
41437;DHT22;27178;49.460;10.850;2022-08-30T04:51:41;20.80;60.90
41437;DHT22;27178;49.460;10.850;2022-08-30T04:54:10;20.70;60.90
41437;DHT22;27178;49.460;10.850;2022-08-30T04:56:38;20.70;61.00
41437;DHT22;27178;49.460;10.850;2022-08-30T04:59:08;20.70;61.30
41437;DHT22;27178;49.460;10.850;2022-08-30T05:01:37;20.70;61.40
41437;DHT22;27178;49.460;10.850;2022-08-30T05:04:11;20.70;61.40
41437;DHT22;27178;49.460;10.850;2022-08-30T05:06:40;20.70;61.50
41437;DHT22;27178;49.460;10.850;2022-08-30T05:09:08;20.70;61.50
41437;DHT22;27178;49.460;10.850;2022-08-30T05:11:37;20.70;61.70
41437;DHT22;27178;49.460;10.850;2022-08-30T05:14:06;20.70;61.70
41437;DHT22;27178;49.460;10.850;2022-08-30T05:16:36;20.70;61.70
41437;DHT22;27178;49.460;10.850;2022-08-30T05:19:04;20.70;61.80
41437;DHT22;27178;49.460;10.850;2022-08-30T05:21:34;20.70;61.90
41437;DHT22;27178;49.460;10.850;2022-08-30T05:24:03;20.70;62.00
41437;DHT22;27178;49.460;10.850;2022-08-30T05:26:33;20.70;62.10
41437;DHT22;27178;49.460;10.850;2022-08-30T05:29:02;20.70;62.20
41437;DHT22;27178;49.460;10.850;2022-08-30T05:31:33;20.70;62.10
41437;DHT22;27178;49.460;10.850;2022-08-30T05:34:03;20.70;62.20
41437;DHT22;27178;49.460;10.850;2022-08-30T05:36:34;20.70;62.50
41437;DHT22;27178;49.460;10.850;2022-08-30T05:39:04;20.70;62.50
41437;DHT22;27178;49.460;10.850;2022-08-30T05:41:35;20.70;62.30
41437;DHT22;27178;49.460;10.850;2022-08-30T05:44:05;20.70;62.40
41437;DHT22;27178;49.460;10.850;2022-08-30T05:46:35;20.80;62.50
41437;DHT22;27178;49.460;10.850;2022-08-30T05:49:06;20.70;62.40
41437;DHT22;27178;49.460;10.850;2022-08-30T05:51:35;20.70;62.60
41437;DHT22;27178;49.460;10.850;2022-08-30T05:54:09;20.80;62.50
41437;DHT22;27178;49.460;10.850;2022-08-30T05:56:39;20.70;62.50
41437;DHT22;27178;49.460;10.850;2022-08-30T05:59:08;20.70;62.60
41437;DHT22;27178;49.460;10.850;2022-08-30T06:01:38;20.80;62.70
41437;DHT22;27178;49.460;10.850;2022-08-30T06:04:10;20.70;62.70
41437;DHT22;27178;49.460;10.850;2022-08-30T06:06:40;20.70;62.70
41437;DHT22;27178;49.460;10.850;2022-08-30T06:09:10;20.70;62.70
41437;DHT22;27178;49.460;10.850;2022-08-30T06:11:38;20.70;62.80
41437;DHT22;27178;49.460;10.850;2022-08-30T06:14:07;20.80;62.90
41437;DHT22;27178;49.460;10.850;2022-08-30T06:16:37;20.80;63.10
41437;DHT22;27178;49.460;10.850;2022-08-30T06:19:08;20.80;63.30
41437;DHT22;27178;49.460;10.850;2022-08-30T06:21:37;20.80;63.30
41437;DHT22;27178;49.460;10.850;2022-08-30T06:24:08;20.80;63.20
41437;DHT22;27178;49.460;10.850;2022-08-30T06:26:38;20.90;63.10
41437;DHT22;27178;49.460;10.850;2022-08-30T06:29:08;20.90;63.20
41437;DHT22;27178;49.460;10.850;2022-08-30T06:31:37;21.00;63.20
41437;DHT22;27178;49.460;10.850;2022-08-30T06:34:06;21.00;63.20
41437;DHT22;27178;49.460;10.850;2022-08-30T06:36:35;21.00;63.20
41437;DHT22;27178;49.460;10.850;2022-08-30T06:39:05;21.10;63.40
41437;DHT22;27178;49.460;10.850;2022-08-30T06:41:35;21.10;63.50
41437;DHT22;27178;49.460;10.850;2022-08-30T06:44:05;21.10;63.60
41437;DHT22;27178;49.460;10.850;2022-08-30T06:46:37;21.10;63.60
41437;DHT22;27178;49.460;10.850;2022-08-30T06:49:06;21.20;63.80
41437;DHT22;27178;49.460;10.850;2022-08-30T06:51:37;21.20;63.70
41437;DHT22;27178;49.460;10.850;2022-08-30T06:54:09;21.20;63.60
41437;DHT22;27178;49.460;10.850;2022-08-30T06:56:39;21.30;63.60
41437;DHT22;27178;49.460;10.850;2022-08-30T06:59:23;21.30;63.70
41437;DHT22;27178;49.460;10.850;2022-08-30T07:01:52;21.40;63.80
41437;DHT22;27178;49.460;10.850;2022-08-30T07:04:21;21.40;63.70
41437;DHT22;27178;49.460;10.850;2022-08-30T07:06:50;21.40;63.70
41437;DHT22;27178;49.460;10.850;2022-08-30T07:09:19;21.50;63.80
41437;DHT22;27178;49.460;10.850;2022-08-30T07:11:50;21.50;63.90
41437;DHT22;27178;49.460;10.850;2022-08-30T07:14:18;21.50;63.90
41437;DHT22;27178;49.460;10.850;2022-08-30T07:16:47;20.20;63.10
41437;DHT22;27178;49.460;10.850;2022-08-30T07:19:18;21.60;64.20
41437;DHT22;27178;49.460;10.850;2022-08-30T07:21:48;21.60;64.00
41437;DHT22;27178;49.460;10.850;2022-08-30T07:24:19;21.70;64.10
41437;DHT22;27178;49.460;10.850;2022-08-30T07:26:49;21.70;64.10
41437;DHT22;27178;49.460;10.850;2022-08-30T07:29:18;21.70;64.00
41437;DHT22;27178;49.460;10.850;2022-08-30T07:31:47;21.80;64.10
41437;DHT22;27178;49.460;10.850;2022-08-30T07:34:16;21.80;64.10
41437;DHT22;27178;49.460;10.850;2022-08-30T07:36:48;21.90;64.20
41437;DHT22;27178;49.460;10.850;2022-08-30T07:39:18;21.90;64.10
41437;DHT22;27178;49.460;10.850;2022-08-30T07:41:46;22.00;64.10
41437;DHT22;27178;49.460;10.850;2022-08-30T07:44:17;22.00;64.20
41437;DHT22;27178;49.460;10.850;2022-08-30T07:46:48;22.10;64.70
41437;DHT22;27178;49.460;10.850;2022-08-30T07:49:17;22.10;64.50
41437;DHT22;27178;49.460;10.850;2022-08-30T07:51:46;22.20;64.50
41437;DHT22;27178;49.460;10.850;2022-08-30T07:54:15;22.20;64.50
41437;DHT22;27178;49.460;10.850;2022-08-30T07:56:44;22.30;64.30
41437;DHT22;27178;49.460;10.850;2022-08-30T07:59:13;22.30;64.10
41437;DHT22;27178;49.460;10.850;2022-08-30T08:01:41;22.30;63.40
41437;DHT22;27178;49.460;10.850;2022-08-30T08:04:09;22.40;63.40
41437;DHT22;27178;49.460;10.850;2022-08-30T08:06:38;22.40;62.60
41437;DHT22;27178;49.460;10.850;2022-08-30T08:09:07;22.40;62.40
41437;DHT22;27178;49.460;10.850;2022-08-30T08:11:36;22.50;61.90
41437;DHT22;27178;49.460;10.850;2022-08-30T08:14:07;22.50;61.90
41437;DHT22;27178;49.460;10.850;2022-08-30T08:16:37;22.60;61.50
41437;DHT22;27178;49.460;10.850;2022-08-30T08:19:05;22.60;61.50
41437;DHT22;27178;49.460;10.850;2022-08-30T08:21:35;22.60;61.00
41437;DHT22;27178;49.460;10.850;2022-08-30T08:24:04;22.60;61.70
41437;DHT22;27178;49.460;10.850;2022-08-30T08:26:34;22.70;60.70
41437;DHT22;27178;49.460;10.850;2022-08-30T08:29:08;22.70;60.50
41437;DHT22;27178;49.460;10.850;2022-08-30T08:31:36;22.80;60.00
41437;DHT22;27178;49.460;10.850;2022-08-30T08:34:05;22.80;60.90
41437;DHT22;27178;49.460;10.850;2022-08-30T08:36:34;22.80;60.20
41437;DHT22;27178;49.460;10.850;2022-08-30T08:39:04;22.90;59.90
41437;DHT22;27178;49.460;10.850;2022-08-30T08:41:48;22.90;59.30
41437;DHT22;27178;49.460;10.850;2022-08-30T08:44:30;22.90;59.70
41437;DHT22;27178;49.460;10.850;2022-08-30T08:47:09;22.90;59.50
41437;DHT22;27178;49.460;10.850;2022-08-30T08:49:41;23.00;60.80
41437;DHT22;27178;49.460;10.850;2022-08-30T08:52:17;23.00;59.90
41437;DHT22;27178;49.460;10.850;2022-08-30T08:55:08;23.00;59.60
41437;DHT22;27178;49.460;10.850;2022-08-30T08:57:37;23.10;59.10
41437;DHT22;27178;49.460;10.850;2022-08-30T09:00:10;23.10;58.90
41437;DHT22;27178;49.460;10.850;2022-08-30T09:02:42;23.10;59.00
41437;DHT22;27178;49.460;10.850;2022-08-30T09:05:18;23.20;58.90
41437;DHT22;27178;49.460;10.850;2022-08-30T09:07:51;23.20;58.60
41437;DHT22;27178;49.460;10.850;2022-08-30T09:10:21;23.30;58.80
41437;DHT22;27178;49.460;10.850;2022-08-30T09:13:11;23.30;59.00
41437;DHT22;27178;49.460;10.850;2022-08-30T09:15:41;23.30;58.20
41437;DHT22;27178;49.460;10.850;2022-08-30T09:18:10;23.40;58.50
41437;DHT22;27178;49.460;10.850;2022-08-30T09:20:47;23.40;58.10
41437;DHT22;27178;49.460;10.850;2022-08-30T09:23:24;23.40;58.90
41437;DHT22;27178;49.460;10.850;2022-08-30T09:25:57;23.50;57.90
41437;DHT22;27178;49.460;10.850;2022-08-30T09:28:28;23.50;57.60
41437;DHT22;27178;49.460;10.850;2022-08-30T09:31:03;23.50;57.40
41437;DHT22;27178;49.460;10.850;2022-08-30T09:33:37;23.60;57.70
41437;DHT22;27178;49.460;10.850;2022-08-30T09:36:13;23.70;58.10
41437;DHT22;27178;49.460;10.850;2022-08-30T09:38:43;23.70;58.20
41437;DHT22;27178;49.460;10.850;2022-08-30T09:41:33;23.80;58.30
41437;DHT22;27178;49.460;10.850;2022-08-30T09:44:07;23.80;57.70
41437;DHT22;27178;49.460;10.850;2022-08-30T09:46:47;23.90;58.00
41437;DHT22;27178;49.460;10.850;2022-08-30T09:49:34;23.90;57.60
41437;DHT22;27178;49.460;10.850;2022-08-30T09:52:31;24.00;57.80
41437;DHT22;27178;49.460;10.850;2022-08-30T09:55:17;24.10;56.60
41437;DHT22;27178;49.460;10.850;2022-08-30T09:57:56;24.20;56.70
41437;DHT22;27178;49.460;10.850;2022-08-30T10:00:28;24.20;57.10
41437;DHT22;27178;49.460;10.850;2022-08-30T10:03:13;24.30;56.80
41437;DHT22;27178;49.460;10.850;2022-08-30T10:06:07;24.30;56.20
41437;DHT22;27178;49.460;10.850;2022-08-30T10:08:48;24.40;56.30
41437;DHT22;27178;49.460;10.850;2022-08-30T10:11:25;24.50;55.60
41437;DHT22;27178;49.460;10.850;2022-08-30T10:16:53;24.60;54.90
41437;DHT22;27178;49.460;10.850;2022-08-30T10:19:39;24.70;55.10
41437;DHT22;27178;49.460;10.850;2022-08-30T10:22:13;24.80;54.80
41437;DHT22;27178;49.460;10.850;2022-08-30T10:24:48;24.80;54.50
41437;DHT22;27178;49.460;10.850;2022-08-30T10:27:20;24.90;54.70
41437;DHT22;27178;49.460;10.850;2022-08-30T10:29:54;25.00;54.20
41437;DHT22;27178;49.460;10.850;2022-08-30T10:32:31;25.10;54.00
41437;DHT22;27178;49.460;10.850;2022-08-30T10:35:05;25.20;53.60
41437;DHT22;27178;49.460;10.850;2022-08-30T10:37:38;25.30;54.00
41437;DHT22;27178;49.460;10.850;2022-08-30T10:40:12;25.30;53.80
41437;DHT22;27178;49.460;10.850;2022-08-30T10:43:03;25.40;53.60
41437;DHT22;27178;49.460;10.850;2022-08-30T10:45:36;25.50;53.60
41437;DHT22;27178;49.460;10.850;2022-08-30T10:48:15;25.50;53.10
41437;DHT22;27178;49.460;10.850;2022-08-30T10:50:49;25.60;53.00
41437;DHT22;27178;49.460;10.850;2022-08-30T10:53:24;25.70;52.70
41437;DHT22;27178;49.460;10.850;2022-08-30T10:56:01;25.80;52.70
41437;DHT22;27178;49.460;10.850;2022-08-30T10:58:30;25.90;52.60
41437;DHT22;27178;49.460;10.850;2022-08-30T11:04:25;26.00;51.60
41437;DHT22;27178;49.460;10.850;2022-08-30T11:07:06;26.20;52.00
41437;DHT22;27178;49.460;10.850;2022-08-30T11:09:53;26.30;51.80
41437;DHT22;27178;49.460;10.850;2022-08-30T11:12:31;26.40;51.40
41437;DHT22;27178;49.460;10.850;2022-08-30T11:15:12;26.50;51.60
41437;DHT22;27178;49.460;10.850;2022-08-30T11:17:46;26.60;50.90
41437;DHT22;27178;49.460;10.850;2022-08-30T11:20:34;26.70;51.30
41437;DHT22;27178;49.460;10.850;2022-08-30T11:23:26;26.80;50.60
41437;DHT22;27178;49.460;10.850;2022-08-30T11:26:02;27.00;50.10
41437;DHT22;27178;49.460;10.850;2022-08-30T11:31:42;27.10;49.70
41437;DHT22;27178;49.460;10.850;2022-08-30T11:37:36;27.40;49.90
41437;DHT22;27178;49.460;10.850;2022-08-30T11:42:55;27.60;48.90
41437;DHT22;27178;49.460;10.850;2022-08-30T11:45:44;27.70;49.40
41437;DHT22;27178;49.460;10.850;2022-08-30T11:48:41;27.90;48.50
41437;DHT22;27178;49.460;10.850;2022-08-30T11:54:56;28.10;47.80
41437;DHT22;27178;49.460;10.850;2022-08-30T11:57:32;27.10;47.30
41437;DHT22;27178;49.460;10.850;2022-08-30T12:00:08;28.30;48.00
41437;DHT22;27178;49.460;10.850;2022-08-30T12:02:51;28.40;47.90
41437;DHT22;27178;49.460;10.850;2022-08-30T12:05:48;28.50;47.50
41437;DHT22;27178;49.460;10.850;2022-08-30T12:08:49;28.60;47.40
41437;DHT22;27178;49.460;10.850;2022-08-30T12:11:56;28.70;47.30
41437;DHT22;27178;49.460;10.850;2022-08-30T12:14:36;28.80;47.20
41437;DHT22;27178;49.460;10.850;2022-08-30T12:17:14;28.90;46.50
41437;DHT22;27178;49.460;10.850;2022-08-30T12:20:04;28.90;46.40
41437;DHT22;27178;49.460;10.850;2022-08-30T12:22:38;29.00;46.70
41437;DHT22;27178;49.460;10.850;2022-08-30T12:25:16;28.90;46.50
41437;DHT22;27178;49.460;10.850;2022-08-30T12:27:47;29.00;46.00
41437;DHT22;27178;49.460;10.850;2022-08-30T12:30:25;29.00;46.50
41437;DHT22;27178;49.460;10.850;2022-08-30T12:32:54;29.00;45.80
41437;DHT22;27178;49.460;10.850;2022-08-30T12:35:27;29.10;45.90
41437;DHT22;27178;49.460;10.850;2022-08-30T12:38:00;29.10;45.50
41437;DHT22;27178;49.460;10.850;2022-08-30T12:40:29;29.10;45.40
41437;DHT22;27178;49.460;10.850;2022-08-30T12:43:00;29.10;45.50
41437;DHT22;27178;49.460;10.850;2022-08-30T12:45:36;29.10;45.50
41437;DHT22;27178;49.460;10.850;2022-08-30T12:48:10;29.10;45.10
41437;DHT22;27178;49.460;10.850;2022-08-30T12:50:45;29.20;45.60
41437;DHT22;27178;49.460;10.850;2022-08-30T12:53:25;29.20;45.40
41437;DHT22;27178;49.460;10.850;2022-08-30T12:55:58;29.30;45.10
41437;DHT22;27178;49.460;10.850;2022-08-30T12:58:39;29.30;45.30
41437;DHT22;27178;49.460;10.850;2022-08-30T13:01:25;29.40;45.10
41437;DHT22;27178;49.460;10.850;2022-08-30T13:03:58;29.50;45.00
41437;DHT22;27178;49.460;10.850;2022-08-30T13:06:39;29.60;45.50
41437;DHT22;27178;49.460;10.850;2022-08-30T13:09:21;29.70;45.30
41437;DHT22;27178;49.460;10.850;2022-08-30T13:11:50;29.90;45.20
41437;DHT22;27178;49.460;10.850;2022-08-30T13:14:35;30.00;45.30
41437;DHT22;27178;49.460;10.850;2022-08-30T13:17:23;30.10;44.40
41437;DHT22;27178;49.460;10.850;2022-08-30T13:19:57;30.30;44.50
41437;DHT22;27178;49.460;10.850;2022-08-30T13:22:28;30.30;44.00
41437;DHT22;27178;49.460;10.850;2022-08-30T13:24:58;30.40;44.90
41437;DHT22;27178;49.460;10.850;2022-08-30T13:27:27;30.50;44.30
41437;DHT22;27178;49.460;10.850;2022-08-30T13:29:57;30.60;44.00
41437;DHT22;27178;49.460;10.850;2022-08-30T13:32:26;30.60;43.70
41437;DHT22;27178;49.460;10.850;2022-08-30T13:34:55;30.60;43.50
41437;DHT22;27178;49.460;10.850;2022-08-30T13:37:23;30.60;43.40
41437;DHT22;27178;49.460;10.850;2022-08-30T13:40:14;30.60;43.40
41437;DHT22;27178;49.460;10.850;2022-08-30T13:42:43;30.70;43.40
41437;DHT22;27178;49.460;10.850;2022-08-30T13:45:13;30.70;44.70
41437;DHT22;27178;49.460;10.850;2022-08-30T13:48:04;30.70;44.00
41437;DHT22;27178;49.460;10.850;2022-08-30T13:50:33;30.80;44.10
41437;DHT22;27178;49.460;10.850;2022-08-30T13:53:01;31.00;44.30
41437;DHT22;27178;49.460;10.850;2022-08-30T13:55:30;31.10;44.10
41437;DHT22;27178;49.460;10.850;2022-08-30T13:57:58;31.20;43.80
41437;DHT22;27178;49.460;10.850;2022-08-30T14:00:27;31.30;43.60
41437;DHT22;27178;49.460;10.850;2022-08-30T14:03:00;31.40;43.20
41437;DHT22;27178;49.460;10.850;2022-08-30T14:05:32;31.50;43.10
41437;DHT22;27178;49.460;10.850;2022-08-30T14:08:24;31.70;43.50
41437;DHT22;27178;49.460;10.850;2022-08-30T14:11:15;31.80;42.90
41437;DHT22;27178;49.460;10.850;2022-08-30T14:13:47;32.00;42.70
41437;DHT22;27178;49.460;10.850;2022-08-30T14:16:38;32.10;43.30
41437;DHT22;27178;49.460;10.850;2022-08-30T14:19:07;32.30;42.90
41437;DHT22;27178;49.460;10.850;2022-08-30T14:21:38;32.40;43.00
41437;DHT22;27178;49.460;10.850;2022-08-30T14:24:06;32.50;42.60
41437;DHT22;27178;49.460;10.850;2022-08-30T14:26:36;32.60;42.00
41437;DHT22;27178;49.460;10.850;2022-08-30T14:29:08;32.60;42.00
41437;DHT22;27178;49.460;10.850;2022-08-30T14:31:37;32.60;42.20
41437;DHT22;27178;49.460;10.850;2022-08-30T14:34:08;32.70;42.70
41437;DHT22;27178;49.460;10.850;2022-08-30T14:36:41;32.70;42.60
41437;DHT22;27178;49.460;10.850;2022-08-30T14:39:12;32.80;42.20
41437;DHT22;27178;49.460;10.850;2022-08-30T14:41:43;32.80;41.80
41437;DHT22;27178;49.460;10.850;2022-08-30T14:44:14;32.80;42.10
41437;DHT22;27178;49.460;10.850;2022-08-30T14:46:42;32.80;42.10
41437;DHT22;27178;49.460;10.850;2022-08-30T14:49:12;32.80;42.30
41437;DHT22;27178;49.460;10.850;2022-08-30T14:51:43;32.80;42.30
41437;DHT22;27178;49.460;10.850;2022-08-30T14:54:15;32.70;41.80
41437;DHT22;27178;49.460;10.850;2022-08-30T14:56:43;32.70;42.10
41437;DHT22;27178;49.460;10.850;2022-08-30T14:59:12;32.60;41.80
41437;DHT22;27178;49.460;10.850;2022-08-30T15:01:41;32.50;42.20
41437;DHT22;27178;49.460;10.850;2022-08-30T15:04:09;32.40;42.50
41437;DHT22;27178;49.460;10.850;2022-08-30T15:06:40;32.30;42.70
41437;DHT22;27178;49.460;10.850;2022-08-30T15:09:13;32.20;42.90
41437;DHT22;27178;49.460;10.850;2022-08-30T15:11:42;32.10;42.80
41437;DHT22;27178;49.460;10.850;2022-08-30T15:14:12;32.00;43.30
41437;DHT22;27178;49.460;10.850;2022-08-30T15:16:42;31.90;43.00
41437;DHT22;27178;49.460;10.850;2022-08-30T15:19:12;32.00;43.30
41437;DHT22;27178;49.460;10.850;2022-08-30T15:21:41;32.00;43.40
41437;DHT22;27178;49.460;10.850;2022-08-30T15:24:15;32.10;43.30
41437;DHT22;27178;49.460;10.850;2022-08-30T15:26:43;32.10;43.20
41437;DHT22;27178;49.460;10.850;2022-08-30T15:29:13;32.20;43.20
41437;DHT22;27178;49.460;10.850;2022-08-30T15:31:43;32.40;43.50
41437;DHT22;27178;49.460;10.850;2022-08-30T15:34:17;32.40;43.30
41437;DHT22;27178;49.460;10.850;2022-08-30T15:36:47;32.50;43.10
41437;DHT22;27178;49.460;10.850;2022-08-30T15:39:17;32.60;42.60
41437;DHT22;27178;49.460;10.850;2022-08-30T15:41:46;32.70;42.90
41437;DHT22;27178;49.460;10.850;2022-08-30T15:44:24;32.80;42.90
41437;DHT22;27178;49.460;10.850;2022-08-30T15:46:53;33.00;42.60
41437;DHT22;27178;49.460;10.850;2022-08-30T15:49:23;33.00;42.20
41437;DHT22;27178;49.460;10.850;2022-08-30T15:51:51;33.20;42.20
41437;DHT22;27178;49.460;10.850;2022-08-30T15:54:22;33.20;41.90
41437;DHT22;27178;49.460;10.850;2022-08-30T15:56:51;33.30;41.80
41437;DHT22;27178;49.460;10.850;2022-08-30T15:59:25;33.40;41.50
41437;DHT22;27178;49.460;10.850;2022-08-30T16:01:54;33.40;41.60
41437;DHT22;27178;49.460;10.850;2022-08-30T16:04:23;33.40;42.00
41437;DHT22;27178;49.460;10.850;2022-08-30T16:06:52;33.40;41.40